Time;durP1;ratioP1;P1;durP2;ratioP2;P2;SDS_P1;SDS_P2;PMS_P1;PMS_P2;Temp;Humidity;BMP_temperature;BMP_pressure;BME280_temperature;BME280_humidity;BME280_pressure;Samples;Min_cycle;Max_cycle;Signal;HPM_P1;HPM_P2
2023/10/09 00:03:01;;;;;;;2.90;1.80;;;18.80;73.20;;;;;;5136264;27;20176;-65
2023/10/09 00:08:19;;;;;;;2.20;2.00;;;18.80;73.20;;;;;;5136756;27;20167;-65
2023/10/09 00:10:53;;;;;;;2.88;2.40;;;18.80;73.20;;;;;;5136425;27;20164;-65
2023/10/09 00:13:19;;;;;;;2.40;2.20;;;18.90;73.30;;;;;;5136414;27;20646;-64
2023/10/09 00:15:52;;;;;;;2.80;2.20;;;18.80;73.20;;;;;;5136749;27;20176;-64
2023/10/09 00:18:22;;;;;;;2.50;2.10;;;18.80;73.20;;;;;;5135604;27;20188;-64
2023/10/09 00:20:54;;;;;;;2.63;2.17;;;18.80;73.20;;;;;;5136969;27;20192;-64
2023/10/09 00:23:20;;;;;;;2.17;1.98;;;18.80;73.20;;;;;;5136350;27;20638;-64
2023/10/09 00:28:53;;;;;;;4.93;2.80;;;18.80;73.20;;;;;;5053190;28;20171;-64
2023/10/09 00:31:33;;;;;;;2.78;2.28;;;18.80;73.20;;;;;;5116946;27;20181;-64
2023/10/09 00:34:05;;;;;;;2.88;2.38;;;18.80;73.20;;;;;;5136116;27;20174;-65
2023/10/09 00:36:32;;;;;;;2.50;2.10;;;18.80;73.30;;;;;;5136045;27;20180;-65
2023/10/09 00:39:11;;;;;;;2.97;2.22;;;18.80;73.30;;;;;;5135182;27;20252;-64
2023/10/09 00:41:36;;;;;;;3.40;2.50;;;18.80;73.20;;;;;;5136482;27;20176;-64
2023/10/09 00:44:07;;;;;;;2.55;2.22;;;18.80;73.30;;;;;;5136222;27;20180;-65
2023/10/09 00:46:34;;;;;;;2.35;2.10;;;18.80;73.30;;;;;;5134698;27;20183;-65
2023/10/09 00:49:02;;;;;;;2.53;2.33;;;18.80;73.20;;;;;;5117261;27;20235;-65
2023/10/09 00:51:34;;;;;;;3.53;2.13;;;18.80;73.30;;;;;;5117979;27;20296;-65
2023/10/09 00:54:07;;;;;;;2.97;2.45;;;18.80;73.30;;;;;;5118191;27;20172;-65
2023/10/09 00:56:41;;;;;;;2.70;2.25;;;18.80;73.30;;;;;;5103059;27;20256;-64
2023/10/09 01:01:39;;;;;;;2.70;2.50;;;18.80;73.30;;;;;;5135948;27;20635;-65
2023/10/09 01:04:11;;;;;;;2.78;2.55;;;18.80;73.30;;;;;;5135944;27;20176;-65
2023/10/09 01:06:43;;;;;;;2.50;2.30;;;18.80;73.30;;;;;;5135323;27;20176;-64
2023/10/09 01:09:22;;;;;;;2.38;2.17;;;18.80;74.20;;;;;;5135636;27;20199;-65
2023/10/09 01:11:49;;;;;;;2.28;2.13;;;18.80;73.30;;;;;;5135897;27;20225;-65
2023/10/09 01:14:21;;;;;;;2.90;2.60;;;18.80;73.30;;;;;;5134911;27;20177;-64
2023/10/09 01:16:47;;;;;;;2.42;2.22;;;18.80;73.30;;;;;;5135939;27;20220;-66
2023/10/09 01:19:13;;;;;;;2.85;2.58;;;18.80;73.30;;;;;;5135578;27;20220;-65
2023/10/09 01:21:39;;;;;;;2.90;2.60;;;18.80;73.30;;;;;;5135192;27;20244;-64
2023/10/09 01:24:11;;;;;;;3.05;2.78;;;18.80;73.30;;;;;;5135405;27;20173;-65
2023/10/09 01:26:47;;;;;;;2.55;2.17;;;18.80;73.40;;;;;;5135337;27;20301;-65
2023/10/09 01:29:17;;;;;;;3.08;2.78;;;18.80;73.30;;;;;;5134736;27;20217;-64
2023/10/09 01:32:00;;;;;;;2.70;2.30;;;18.80;73.30;;;;;;5135306;27;20638;-65
2023/10/09 01:37:18;;;;;;;3.25;2.50;;;18.80;73.40;;;;;;5135003;27;20539;-64
2023/10/09 01:39:48;;;;;;;2.70;2.50;;;18.80;73.30;;;;;;5135267;27;20281;-64
2023/10/09 01:42:24;;;;;;;2.70;2.50;;;18.80;73.30;;;;;;5134432;27;20207;-64
2023/10/09 01:44:53;;;;;;;2.70;2.38;;;18.70;73.30;;;;;;5135148;27;20661;-65
2023/10/09 01:47:19;;;;;;;2.30;2.10;;;18.70;73.30;;;;;;5134180;27;20220;-65
2023/10/09 01:49:48;;;;;;;2.95;2.53;;;18.80;73.30;;;;;;5134254;27;20172;-65
2023/10/09 01:52:17;;;;;;;2.83;2.20;;;18.70;73.30;;;;;;5134406;27;20173;-65
2023/10/09 01:54:50;;;;;;;4.15;3.22;;;18.70;73.30;;;;;;5135071;27;20236;-65
2023/10/09 01:57:22;;;;;;;2.83;2.50;;;18.70;73.30;;;;;;5133959;27;20180;-65
2023/10/09 01:59:49;;;;;;;2.83;2.60;;;18.70;73.30;;;;;;5134529;27;20275;-65
2023/10/09 02:02:25;;;;;;;2.53;2.33;;;18.70;73.30;;;;;;5133642;27;20247;-65
2023/10/09 02:07:58;;;;;;;2.63;2.30;;;18.80;73.30;;;;;;5134649;27;20161;-65
2023/10/09 02:13:10;;;;;;;2.75;2.55;;;18.70;73.30;;;;;;5134757;27;20686;-64
2023/10/09 02:21:00;;;;;;;3.25;2.78;;;18.80;73.40;;;;;;5134537;27;20204;-64
2023/10/09 02:23:46;;;;;;;2.67;2.47;;;18.80;73.40;;;;;;5133483;27;20176;-64
2023/10/09 02:26:19;;;;;;;5.10;3.20;;;18.80;73.40;;;;;;5134279;27;20187;-64
2023/10/09 02:28:52;;;;;;;2.95;2.65;;;18.70;73.40;;;;;;5134509;27;20247;-65
2023/10/09 02:31:22;;;;;;;3.15;2.80;;;18.70;73.30;;;;;;5133120;27;20211;-66
2023/10/09 02:33:50;;;;;;;2.90;2.60;;;18.70;73.30;;;;;;5134473;27;20168;-66
2023/10/09 02:36:16;;;;;;;3.60;2.63;;;18.70;73.30;;;;;;5133814;27;20657;-65
2023/10/09 02:38:42;;;;;;;3.45;3.08;;;18.70;73.40;;;;;;5133441;27;20208;-65
2023/10/09 02:43:46;;;;;;;3.63;2.92;;;18.70;73.40;;;;;;5134060;27;20606;-65
2023/10/09 02:46:18;;;;;;;3.88;3.10;;;18.70;73.40;;;;;;5133030;27;20259;-65
2023/10/09 02:48:50;;;;;;;3.22;3.03;;;18.70;73.40;;;;;;5133703;27;20224;-66
2023/10/09 02:54:18;;;;;;;3.65;2.95;;;18.70;73.40;;;;;;5134037;27;20649;-65
2023/10/09 02:57:15;;;;;;;3.08;2.78;;;18.70;73.50;;;;;;5133732;27;20174;-66
2023/10/09 02:59:44;;;;;;;3.25;2.95;;;18.80;73.40;;;;;;5132706;27;20204;-65
2023/10/09 03:02:10;;;;;;;3.22;2.92;;;18.70;73.40;;;;;;5133565;27;20247;-65
2023/10/09 03:04:38;;;;;;;3.88;3.13;;;18.70;73.40;;;;;;5133697;27;20177;-66
2023/10/09 03:07:04;;;;;;;3.72;2.95;;;18.70;73.40;;;;;;5133046;27;20221;-65
2023/10/09 03:09:31;;;;;;;4.28;3.13;;;18.70;73.50;;;;;;5133406;27;20172;-65
2023/10/09 03:12:05;;;;;;;3.17;2.88;;;18.70;73.40;;;;;;5133345;27;20195;-65
2023/10/09 03:14:38;;;;;;;3.20;2.90;;;18.70;73.40;;;;;;5132826;27;20585;-65
2023/10/09 03:17:03;;;;;;;2.83;2.63;;;18.70;73.40;;;;;;5133280;27;20180;-65
2023/10/09 03:19:30;;;;;;;3.47;3.13;;;18.70;73.40;;;;;;5132833;28;20261;-65
2023/10/09 03:21:59;;;;;;;3.55;3.10;;;18.70;73.40;;;;;;5133883;28;20596;-66
2023/10/09 03:24:27;;;;;;;4.00;3.05;;;18.70;73.40;;;;;;5133534;28;20172;-66
2023/10/09 03:26:55;;;;;;;3.45;3.15;;;18.70;73.40;;;;;;5133027;28;20188;-65
2023/10/09 03:29:24;;;;;;;3.72;3.15;;;18.70;73.40;;;;;;5133180;28;20183;-66
2023/10/09 03:31:53;;;;;;;3.92;3.10;;;18.70;73.50;;;;;;5133430;28;20263;-66
2023/10/09 03:34:18;;;;;;;4.00;2.90;;;18.70;73.50;;;;;;5132583;28;20181;-66
2023/10/09 03:36:47;;;;;;;3.17;2.97;;;18.70;73.50;;;;;;5133459;28;20226;-65
2023/10/09 03:41:58;;;;;;;4.32;3.35;;;18.70;73.50;;;;;;5132575;28;20544;-65
2023/10/09 03:44:27;;;;;;;3.28;2.90;;;18.70;73.50;;;;;;5133078;28;20255;-65
2023/10/09 03:46:53;;;;;;;4.60;3.20;;;18.60;73.40;;;;;;5133238;28;20176;-66
2023/10/09 03:49:24;;;;;;;3.45;2.58;;;18.70;73.50;;;;;;5132495;28;20577;-66
2023/10/09 03:51:51;;;;;;;3.55;3.25;;;18.70;73.50;;;;;;5133467;28;20233;-65
2023/10/09 03:54:20;;;;;;;3.55;3.08;;;18.70;73.50;;;;;;5133014;28;20623;-66
2023/10/09 03:56:49;;;;;;;3.40;3.00;;;18.70;73.50;;;;;;5132426;28;20172;-66
2023/10/09 03:59:19;;;;;;;3.25;2.95;;;18.70;73.50;;;;;;5133015;28;20219;-65
2023/10/09 04:01:46;;;;;;;3.45;3.05;;;18.70;73.60;;;;;;5132531;28;20173;-65
2023/10/09 04:04:14;;;;;;;3.70;3.35;;;18.70;73.50;;;;;;5132932;28;20546;-66
2023/10/09 04:06:39;;;;;;;3.95;3.55;;;18.70;73.50;;;;;;5133106;28;20172;-66
2023/10/09 04:14:55;;;;;;;3.50;3.20;;;18.60;73.50;;;;;;5132883;28;20165;-66
2023/10/09 04:22:49;;;;;;;4.00;2.78;;;18.60;73.50;;;;;;5135683;27;20213;-66
2023/10/09 04:25:25;;;;;;;3.35;3.00;;;18.70;73.60;;;;;;5136453;27;20176;-65
2023/10/09 04:27:53;;;;;;;3.45;2.83;;;18.70;73.60;;;;;;5136799;27;20217;-66
2023/10/09 04:30:19;;;;;;;3.58;3.25;;;18.70;73.60;;;;;;5135609;27;20172;-66
2023/10/09 04:32:45;;;;;;;3.30;3.00;;;18.70;73.60;;;;;;5136496;27;20244;-66
2023/10/09 04:35:24;;;;;;;3.70;3.10;;;18.70;73.60;;;;;;5136359;27;20225;-65
2023/10/09 04:38:00;;;;;;;4.00;2.88;;;18.70;73.60;;;;;;5135832;27;20190;-65
2023/10/09 04:43:06;;;;;;;3.40;3.10;;;18.70;73.60;;;;;;5136337;27;20168;-65
2023/10/09 04:48:09;;;;;;;3.45;3.15;;;18.70;73.60;;;;;;5115183;28;20220;-66
2023/10/09 04:55:44;;;;;;;3.28;2.95;;;18.60;73.50;;;;;;5115779;28;20200;-66
2023/10/09 04:58:13;;;;;;;3.60;2.95;;;18.60;73.50;;;;;;5097038;28;20214;-66
2023/10/09 05:03:29;;;;;;;2.60;2.40;;;18.60;73.60;;;;;;5115357;28;20253;-66
2023/10/09 05:05:58;;;;;;;3.22;2.92;;;18.60;73.60;;;;;;5114965;28;20256;-66
2023/10/09 05:16:25;;;;;;;2.50;2.30;;;18.60;73.60;;;;;;5114995;28;20180;-64
2023/10/09 05:18:57;;;;;;;3.33;3.00;;;18.60;73.60;;;;;;5115195;28;20177;-65
2023/10/09 05:32:15;;;;;;;3.15;2.85;;;18.60;73.60;;;;;;5114893;28;20173;-65
2023/10/09 05:37:32;;;;;;;3.53;2.78;;;18.60;73.60;;;;;;5114767;28;20780;-64
2023/10/09 05:48:06;;;;;;;3.67;3.35;;;18.60;73.60;;;;;;5113557;28;20231;-65
2023/10/09 05:50:34;;;;;;;3.03;2.83;;;18.60;73.60;;;;;;5114426;28;20295;-65
2023/10/09 06:03:45;;;;;;;3.05;2.78;;;18.70;73.70;;;;;;5113368;28;20190;-65
2023/10/09 06:06:18;;;;;;;3.60;2.70;;;18.70;73.70;;;;;;5113877;28;20184;-64
2023/10/09 06:14:13;;;;;;;3.05;2.80;;;18.60;73.70;;;;;;5050841;28;20174;-64
2023/10/09 06:16:41;;;;;;;2.72;2.53;;;18.60;73.70;;;;;;5100368;28;20188;-64
2023/10/09 06:24:22;;;;;;;3.10;2.70;;;18.60;73.60;;;;;;5113042;28;20965;-64
2023/10/09 06:27:12;;;;;;;3.05;2.83;;;18.60;73.70;;;;;;5113788;28;20191;-64
2023/10/09 06:29:37;;;;;;;3.72;2.95;;;18.60;73.70;;;;;;5112828;28;20398;-64
2023/10/09 06:34:51;;;;;;;2.83;2.58;;;18.60;73.70;;;;;;5113797;28;20188;-64
2023/10/09 06:37:19;;;;;;;3.03;2.72;;;18.60;73.70;;;;;;5112542;28;20229;-64
2023/10/09 06:39:50;;;;;;;2.80;2.60;;;18.60;73.70;;;;;;5113494;28;20217;-63
2023/10/09 06:45:04;;;;;;;4.18;2.85;;;18.60;73.70;;;;;;5111681;28;20180;-64
2023/10/09 06:47:36;;;;;;;5.30;2.70;;;18.60;73.70;;;;;;5113025;28;20221;-64
2023/10/09 06:52:57;;;;;;;3.47;2.65;;;18.60;73.80;;;;;;5090797;28;20272;-65
2023/10/09 06:55:44;;;;;;;3.05;2.83;;;18.60;73.80;;;;;;5113194;28;20180;-65
2023/10/09 06:58:23;;;;;;;4.05;2.72;;;18.60;74.10;;;;;;5112177;28;20222;-67
2023/10/09 07:01:19;;;;;;;3.70;2.40;;;18.60;74.00;;;;;;5113396;28;20212;-65
2023/10/09 07:03:54;;;;;;;3.38;2.97;;;18.60;74.10;;;;;;5112879;28;20237;-64
2023/10/09 07:06:47;;;;;;;5.10;3.50;;;18.70;74.40;;;;;;5112044;28;20235;-67
2023/10/09 07:17:01;;;;;;;3.88;3.00;;;18.80;74.10;;;;;;5083748;28;20656;-66
2023/10/09 07:22:15;;;;;;;5.43;3.17;;;18.70;74.20;;;;;;5112961;28;20218;-66
2023/10/09 07:24:44;;;;;;;3.85;3.20;;;18.70;74.10;;;;;;5113045;28;20243;-70
2023/10/09 07:27:13;;;;;;;4.45;3.38;;;18.70;74.10;;;;;;5112033;28;20176;-66
2023/10/09 07:29:48;;;;;;;4.18;3.00;;;18.70;74.10;;;;;;5113120;28;20242;-66
2023/10/09 07:32:20;;;;;;;8.52;3.40;;;18.70;74.20;;;;;;5112712;28;20177;-66
2023/10/09 07:34:52;;;;;;;7.10;3.08;;;18.70;74.30;;;;;;5112084;28;20183;-68
2023/10/09 07:37:30;;;;;;;4.15;3.10;;;18.70;74.30;;;;;;5112506;28;20177;-66
2023/10/09 07:39:59;;;;;;;6.63;3.33;;;18.70;74.30;;;;;;5112122;28;20208;-66
2023/10/09 07:45:54;;;;;;;5.97;3.30;;;18.70;74.40;;;;;;5112886;28;20200;-67
2023/10/09 07:50:37;;;;;;;5.15;3.30;;;18.70;74.40;;;;;;5112663;28;20200;-66
2023/10/09 07:53:17;;;;;;;4.07;3.00;;;18.70;74.40;;;;;;5112646;28;20173;-66
2023/10/09 07:55:55;;;;;;;4.13;2.97;;;18.70;74.50;;;;;;5111960;28;20634;-66
2023/10/09 07:58:26;;;;;;;6.70;3.63;;;18.70;74.40;;;;;;5116449;28;20246;-67
2023/10/09 08:01:08;;;;;;;5.65;3.13;;;18.70;74.40;;;;;;5116103;28;20209;-66
2023/10/09 08:03:36;;;;;;;4.95;3.15;;;18.70;74.40;;;;;;5116702;28;20177;-66
2023/10/09 08:16:51;;;;;;;7.90;3.05;;;18.70;74.40;;;;;;5115609;28;20273;-66
2023/10/09 08:19:32;;;;;;;3.83;3.10;;;18.70;74.40;;;;;;5115862;28;20235;-65
2023/10/09 08:22:37;;;;;;;3.55;2.90;;;18.70;74.50;;;;;;5115508;28;20161;-65
2023/10/09 08:25:03;;;;;;;5.18;3.10;;;18.70;74.40;;;;;;5115779;28;20275;-65
2023/10/09 08:32:43;;;;;;;3.13;2.83;;;18.80;74.30;;;;;;5116042;28;20195;-66
2023/10/09 08:37:53;;;;;;;3.97;3.30;;;18.70;74.30;;;;;;5115272;28;20180;-66
2023/10/09 08:40:27;;;;;;;4.18;2.92;;;18.70;74.30;;;;;;5115345;28;20212;-66
2023/10/09 08:42:53;;;;;;;3.85;3.15;;;18.80;74.30;;;;;;5097670;28;20643;-66
2023/10/09 08:45:27;;;;;;;3.22;2.92;;;18.80;74.30;;;;;;5114729;28;20680;-67
2023/10/09 08:47:54;;;;;;;6.07;3.20;;;18.80;74.30;;;;;;5115606;28;20270;-66
2023/10/09 08:50:20;;;;;;;5.45;2.95;;;18.80;74.30;;;;;;5114775;28;20264;-67
2023/10/09 08:52:46;;;;;;;3.53;3.13;;;18.80;74.20;;;;;;5115479;28;20185;-66
2023/10/09 08:55:12;;;;;;;3.78;3.08;;;18.80;74.20;;;;;;5097208;28;20181;-66
2023/10/09 08:57:40;;;;;;;5.40;3.17;;;18.80;74.20;;;;;;5114664;28;20173;-66
2023/10/09 09:00:09;;;;;;;4.25;3.10;;;18.90;74.20;;;;;;5115323;28;20292;-66
2023/10/09 09:02:36;;;;;;;4.97;2.67;;;18.80;74.10;;;;;;5115277;28;20177;-66
2023/10/09 09:05:16;;;;;;;3.50;2.80;;;18.80;74.20;;;;;;5114403;28;20169;-66
2023/10/09 09:07:42;;;;;;;4.38;3.08;;;18.80;74.10;;;;;;5097508;28;20180;-66
2023/10/09 09:10:17;;;;;;;4.85;3.42;;;18.90;74.20;;;;;;5114612;28;20177;-66
2023/10/09 09:12:45;;;;;;;4.05;3.00;;;18.80;74.10;;;;;;5114616;28;20182;-66
2023/10/09 09:15:21;;;;;;;4.30;3.17;;;18.80;74.20;;;;;;5114931;28;20634;-66
2023/10/09 09:17:50;;;;;;;4.38;2.85;;;18.80;74.10;;;;;;5115269;28;20647;-66
2023/10/09 09:20:23;;;;;;;3.45;2.92;;;18.90;74.20;;;;;;5095948;28;20212;-66
2023/10/09 09:22:56;;;;;;;6.07;3.30;;;18.80;74.10;;;;;;5115284;28;20229;-66
2023/10/09 09:25:31;;;;;;;3.10;2.80;;;18.90;74.20;;;;;;5114096;28;20200;-66
2023/10/09 09:27:57;;;;;;;3.67;3.13;;;18.90;74.10;;;;;;5115150;28;20173;-68
2023/10/09 09:30:31;;;;;;;3.95;2.75;;;18.90;74.10;;;;;;5114825;28;20169;-68
2023/10/09 09:36:05;;;;;;;4.45;2.90;;;18.90;74.10;;;;;;5114833;28;20188;-66
2023/10/09 09:38:49;;;;;;;4.07;3.08;;;18.90;74.00;;;;;;5114632;28;20169;-66
2023/10/09 09:41:24;;;;;;;3.78;3.35;;;18.90;74.00;;;;;;5113910;28;20185;-66
2023/10/09 09:43:56;;;;;;;3.33;3.03;;;18.90;74.00;;;;;;5114762;28;20221;-66
2023/10/09 09:46:33;;;;;;;3.08;2.72;;;18.90;73.90;;;;;;5113590;28;20177;-66
2023/10/09 09:49:07;;;;;;;3.50;3.00;;;18.90;74.00;;;;;;5081521;28;20242;-66
2023/10/09 09:51:32;;;;;;;4.32;2.92;;;18.90;73.90;;;;;;5114684;28;20200;-66
2023/10/09 09:53:58;;;;;;;3.03;2.60;;;19.00;73.90;;;;;;5113587;28;20201;-66
2023/10/09 09:56:24;;;;;;;5.28;3.22;;;19.00;73.90;;;;;;5096225;28;20710;-66
2023/10/09 09:58:53;;;;;;;6.28;3.08;;;19.00;74.00;;;;;;5113603;28;20301;-66
2023/10/09 10:01:24;;;;;;;3.65;2.47;;;19.00;74.00;;;;;;5113237;28;20702;-65
2023/10/09 10:04:04;;;;;;;3.47;2.65;;;19.00;73.90;;;;;;5081102;28;20177;-66
2023/10/09 10:06:32;;;;;;;2.92;2.40;;;19.00;74.00;;;;;;5080199;28;20173;-66
2023/10/09 10:08:58;;;;;;;4.28;2.78;;;19.00;73.90;;;;;;5095546;28;20636;-66
2023/10/09 10:11:48;;;;;;;5.28;3.00;;;19.00;74.00;;;;;;5113948;28;20200;-66
2023/10/09 10:14:28;;;;;;;3.63;3.00;;;18.90;73.90;;;;;;5113714;28;20177;-65
2023/10/09 10:17:02;;;;;;;4.22;3.00;;;19.00;74.00;;;;;;5114202;28;20188;-66
2023/10/09 10:22:47;;;;;;;3.92;2.80;;;19.00;74.10;;;;;;5113263;28;20176;-66
2023/10/09 10:25:32;;;;;;;3.60;2.58;;;19.00;74.10;;;;;;5113749;28;20188;-67
2023/10/09 10:28:38;;;;;;;3.33;3.00;;;19.00;74.20;;;;;;5113540;28;20193;-67
2023/10/09 10:31:07;;;;;;;3.90;2.85;;;19.00;74.10;;;;;;5113694;28;20189;-67
2023/10/09 10:33:58;;;;;;;3.72;3.40;;;19.00;74.10;;;;;;5095710;28;20180;-67
2023/10/09 10:36:29;;;;;;;5.47;3.20;;;19.00;74.20;;;;;;5116302;27;20174;-67
2023/10/09 10:39:10;;;;;;;2.95;2.65;;;19.10;74.90;;;;;;5122250;27;20668;-66
2023/10/09 10:41:50;;;;;;;2.97;2.65;;;19.00;75.20;;;;;;5122924;27;20219;-66
2023/10/09 10:44:37;;;;;;;7.60;3.63;;;19.10;75.40;;;;;;5120256;27;20199;-67
2023/10/09 10:47:21;;;;;;;4.53;2.78;;;19.20;75.70;;;;;;5123680;27;20260;-68
2023/10/09 10:49:50;;;;;;;3.20;2.90;;;19.10;74.70;;;;;;5123298;27;20639;-67
2023/10/09 10:58:00;;;;;;;3.40;2.67;;;19.10;74.60;;;;;;5112814;28;20281;-68
2023/10/09 11:03:35;;;;;;;4.32;2.92;;;19.20;74.60;;;;;;5097928;28;20176;-68
2023/10/09 11:06:13;;;;;;;4.40;3.22;;;19.20;74.50;;;;;;5112542;28;20180;-67
2023/10/09 11:08:39;;;;;;;4.97;2.85;;;19.20;74.30;;;;;;5113205;28;20169;-67
2023/10/09 11:11:15;;;;;;;4.63;2.92;;;19.20;74.30;;;;;;5094029;28;20241;-68
2023/10/09 11:13:53;;;;;;;5.43;3.20;;;19.10;75.10;;;;;;5113100;28;20168;-68
2023/10/09 11:19:22;;;;;;;4.70;3.13;;;19.20;74.40;;;;;;5112286;28;20180;-68
2023/10/09 11:21:53;;;;;;;3.65;3.30;;;19.20;74.40;;;;;;5113136;28;20193;-67
2023/10/09 11:24:24;;;;;;;4.28;2.97;;;19.20;74.40;;;;;;5112366;28;20583;-66
2023/10/09 11:26:56;;;;;;;4.75;3.42;;;19.20;74.30;;;;;;5094894;28;20256;-68
2023/10/09 11:29:23;;;;;;;3.88;2.75;;;19.20;74.30;;;;;;5095444;28;20255;-68
2023/10/09 11:32:17;;;;;;;3.67;2.72;;;19.20;74.30;;;;;;5113955;28;20181;-71
2023/10/09 11:34:51;;;;;;;4.45;2.88;;;19.20;74.30;;;;;;5117247;28;20180;-68
2023/10/09 11:43:15;;;;;;;4.57;3.05;;;19.20;74.30;;;;;;5116638;28;20180;-68
2023/10/09 11:45:54;;;;;;;3.78;3.42;;;19.30;74.30;;;;;;5116688;28;20173;-68
2023/10/09 11:48:33;;;;;;;3.13;2.85;;;19.30;74.30;;;;;;5116361;28;20216;-68
2023/10/09 11:53:43;;;;;;;5.13;3.50;;;19.30;74.20;;;;;;5116026;28;20218;-69
2023/10/09 11:56:13;;;;;;;4.68;3.10;;;19.30;74.20;;;;;;5116422;28;20669;-68
2023/10/09 11:58:40;;;;;;;7.07;3.63;;;19.30;74.40;;;;;;5116700;28;20185;-67
2023/10/09 12:01:16;;;;;;;5.00;3.08;;;19.30;75.00;;;;;;5115710;28;20220;-67
2023/10/09 12:03:42;;;;;;;3.60;2.97;;;19.30;74.60;;;;;;5116591;28;20176;-67
2023/10/09 12:06:12;;;;;;;5.95;3.30;;;19.30;74.70;;;;;;5115953;28;20196;-67
2023/10/09 12:08:37;;;;;;;4.90;3.15;;;19.40;74.60;;;;;;5115735;28;20527;-66
2023/10/09 12:11:03;;;;;;;6.45;3.08;;;19.40;74.70;;;;;;5116458;28;20658;-66
2023/10/09 12:13:29;;;;;;;4.22;3.00;;;19.40;74.70;;;;;;5116280;28;20177;-67
2023/10/09 12:15:55;;;;;;;5.65;3.33;;;19.40;74.80;;;;;;5115866;28;20177;-66
2023/10/09 12:18:21;;;;;;;7.13;3.08;;;19.40;74.90;;;;;;5116077;28;20214;-66
2023/10/09 12:21:01;;;;;;;3.67;3.38;;;19.40;75.00;;;;;;5116267;28;20341;-66
2023/10/09 12:23:27;;;;;;;5.53;3.13;;;19.40;75.80;;;;;;5116153;28;20485;-66
2023/10/09 12:25:56;;;;;;;4.47;3.33;;;19.30;75.10;;;;;;5116039;28;20566;-67
2023/10/09 12:28:22;;;;;;;7.43;3.83;;;19.40;75.30;;;;;;5115155;28;20196;-66
2023/10/09 12:30:50;;;;;;;5.97;3.10;;;19.40;75.30;;;;;;5116161;28;20177;-67
2023/10/09 12:33:16;;;;;;;10.95;3.35;;;19.40;75.30;;;;;;5115751;28;20173;-67
2023/10/09 12:35:45;;;;;;;5.63;3.03;;;19.40;75.30;;;;;;5115153;28;20181;-67
2023/10/09 12:38:12;;;;;;;5.10;3.33;;;19.40;75.40;;;;;;5115911;28;20180;-67
2023/10/09 12:40:39;;;;;;;6.18;3.17;;;19.40;75.40;;;;;;5115817;28;20253;-68
2023/10/09 12:43:05;;;;;;;3.92;2.88;;;19.40;75.40;;;;;;5114825;28;20177;-68
2023/10/09 12:45:36;;;;;;;8.18;3.13;;;19.40;75.30;;;;;;5115623;28;20229;-69
2023/10/09 12:48:08;;;;;;;4.65;3.40;;;19.40;75.40;;;;;;5115039;28;20261;-66
2023/10/09 12:50:46;;;;;;;5.07;2.88;;;19.40;75.30;;;;;;5098053;28;20187;-66
2023/10/09 12:53:17;;;;;;;5.82;2.85;;;19.40;75.40;;;;;;5115298;28;20623;-66
2023/10/09 12:55:44;;;;;;;6.68;3.40;;;19.30;75.30;;;;;;5115391;28;20239;-66
2023/10/09 12:58:14;;;;;;;4.57;3.28;;;19.30;75.30;;;;;;5114256;28;20609;-66
2023/10/09 13:00:43;;;;;;;6.22;3.30;;;19.30;75.30;;;;;;5115331;28;20209;-63
2023/10/09 13:03:18;;;;;;;6.82;3.63;;;19.30;75.30;;;;;;5114935;28;20542;-63
2023/10/09 13:06:03;;;;;;;6.25;3.17;;;19.40;75.30;;;;;;5115548;28;20191;-64
2023/10/09 13:08:34;;;;;;;5.25;3.88;;;19.40;75.20;;;;;;5115193;28;20639;-64
2023/10/09 13:11:11;;;;;;;5.82;3.33;;;19.40;75.30;;;;;;5114371;28;20197;-64
2023/10/09 13:13:46;;;;;;;10.38;3.92;;;19.40;75.20;;;;;;5115320;28;20176;-63
2023/10/09 13:16:24;;;;;;;4.72;2.67;;;19.40;75.20;;;;;;5114933;28;20176;-62
2023/10/09 13:18:50;;;;;;;5.78;2.72;;;19.40;75.20;;;;;;5114551;28;20184;-62
2023/10/09 13:21:19;;;;;;;7.97;3.10;;;19.40;75.30;;;;;;5114781;28;20245;-61
2023/10/09 13:23:49;;;;;;;10.90;3.80;;;19.40;75.20;;;;;;5114502;28;20173;-63
2023/10/09 13:26:18;;;;;;;7.28;3.50;;;19.40;75.20;;;;;;5114205;28;20188;-64
2023/10/09 13:28:51;;;;;;;8.68;3.10;;;19.40;75.20;;;;;;5114858;28;20206;-64
2023/10/09 13:31:17;;;;;;;6.72;3.60;;;19.30;75.10;;;;;;5114459;28;20260;-67
2023/10/09 13:33:42;;;;;;;9.02;3.55;;;19.40;75.30;;;;;;5114297;28;20266;-66
2023/10/09 13:36:27;;;;;;;6.43;3.30;;;19.40;75.20;;;;;;5114587;28;20248;-64
2023/10/09 13:41:44;;;;;;;6.95;3.20;;;19.30;75.10;;;;;;5114692;28;20187;-66
2023/10/09 13:44:09;;;;;;;6.38;3.63;;;19.30;75.20;;;;;;5114327;28;20173;-66
2023/10/09 13:46:41;;;;;;;3.85;3.08;;;19.30;75.20;;;;;;5113785;28;20169;-67
2023/10/09 13:49:12;;;;;;;6.15;3.28;;;19.30;75.20;;;;;;5114169;28;20588;-67
2023/10/09 13:51:49;;;;;;;5.68;3.35;;;19.20;75.10;;;;;;5114553;28;20181;-66
2023/10/09 13:54:28;;;;;;;7.38;3.50;;;19.20;75.10;;;;;;5112888;28;20180;-66
2023/10/09 13:56:56;;;;;;;6.30;3.10;;;19.20;75.10;;;;;;5114473;28;20188;-66
2023/10/09 13:59:24;;;;;;;5.38;3.22;;;19.20;75.10;;;;;;5114080;28;20208;-66
2023/10/09 14:01:50;;;;;;;9.40;3.53;;;19.30;75.20;;;;;;5113784;28;20507;-66
2023/10/09 14:04:18;;;;;;;4.88;3.63;;;19.30;75.10;;;;;;5113948;28;20268;-67
2023/10/09 14:06:44;;;;;;;10.25;3.70;;;19.20;75.00;;;;;;5113673;28;20177;-65
2023/10/09 14:09:11;;;;;;;4.28;3.05;;;19.30;75.10;;;;;;5113856;28;20230;-65
2023/10/09 14:11:37;;;;;;;12.10;3.40;;;19.30;75.10;;;;;;5114247;28;20252;-66
2023/10/09 14:14:12;;;;;;;5.20;3.10;;;19.30;75.10;;;;;;5121643;27;20173;-65
2023/10/09 14:16:42;;;;;;;6.07;3.33;;;19.20;75.00;;;;;;5116705;27;20646;-65
2023/10/09 14:19:13;;;;;;;5.10;3.30;;;19.30;75.10;;;;;;5134143;27;20176;-64
2023/10/09 14:21:40;;;;;;;4.10;3.00;;;19.30;75.10;;;;;;5124339;27;20169;-64
2023/10/09 14:24:15;;;;;;;7.20;3.50;;;19.20;75.00;;;;;;5113877;28;20177;-64
2023/10/09 14:26:41;;;;;;;6.22;3.22;;;19.20;75.00;;;;;;5113981;28;20177;-65
2023/10/09 14:29:07;;;;;;;6.70;3.28;;;19.20;75.00;;;;;;5112677;28;20185;-65
2023/10/09 14:31:38;;;;;;;5.75;3.38;;;19.20;75.00;;;;;;5119361;27;20177;-65
2023/10/09 14:34:04;;;;;;;7.65;3.28;;;19.20;75.80;;;;;;5129175;27;20180;-65
2023/10/09 14:36:33;;;;;;;3.22;2.92;;;19.20;74.90;;;;;;5112693;28;20537;-64
2023/10/09 14:38:59;;;;;;;6.13;3.63;;;19.20;74.90;;;;;;5123806;27;20688;-64
2023/10/09 14:41:26;;;;;;;4.57;3.28;;;19.30;75.00;;;;;;5133931;27;20232;-65
2023/10/09 14:43:52;;;;;;;6.22;3.28;;;19.30;75.00;;;;;;5133445;27;20176;-66
2023/10/09 14:46:25;;;;;;;6.82;3.40;;;19.20;74.90;;;;;;5133812;27;20622;-67
2023/10/09 14:48:53;;;;;;;8.88;3.88;;;19.20;74.90;;;;;;5132955;27;20269;-66
2023/10/09 14:51:26;;;;;;;7.45;3.83;;;19.20;74.90;;;;;;5133822;27;20179;-66
2023/10/09 14:53:57;;;;;;;9.00;4.15;;;19.20;75.00;;;;;;5134014;27;20175;-66
2023/10/09 14:56:28;;;;;;;5.53;3.28;;;19.30;75.00;;;;;;5133148;27;20177;-65
2023/10/09 14:58:56;;;;;;;4.75;3.67;;;19.30;74.90;;;;;;5133804;27;20645;-65
2023/10/09 15:01:24;;;;;;;5.22;3.45;;;19.30;75.20;;;;;;5133316;27;20218;-65
2023/10/09 15:03:52;;;;;;;6.22;3.47;;;19.30;75.10;;;;;;5133288;27;20169;-65
2023/10/09 15:06:18;;;;;;;5.35;2.95;;;19.30;75.10;;;;;;5132667;27;20256;-64
2023/10/09 15:08:45;;;;;;;5.75;4.03;;;19.30;75.00;;;;;;5133489;27;20506;-68
2023/10/09 15:11:11;;;;;;;4.28;3.25;;;19.30;75.20;;;;;;5132634;27;20199;-67
2023/10/09 15:13:39;;;;;;;5.88;3.97;;;19.30;75.20;;;;;;5133382;27;20614;-68
2023/10/09 15:16:04;;;;;;;5.45;3.53;;;19.30;75.10;;;;;;5133364;27;20268;-67
2023/10/09 15:18:33;;;;;;;5.90;3.75;;;19.30;75.10;;;;;;5132883;27;20251;-67
2023/10/09 15:20:59;;;;;;;6.35;3.15;;;19.30;75.20;;;;;;5133426;27;20212;-67
2023/10/09 15:23:25;;;;;;;5.90;3.35;;;19.30;75.10;;;;;;5133393;28;20170;-67
2023/10/09 15:25:51;;;;;;;7.10;3.53;;;19.30;75.10;;;;;;5132964;28;20184;-67
2023/10/09 15:28:19;;;;;;;7.32;3.90;;;19.30;75.10;;;;;;5133062;28;20510;-67
2023/10/09 15:30:47;;;;;;;7.07;3.47;;;19.30;75.10;;;;;;5133627;28;20218;-67
2023/10/09 15:33:16;;;;;;;5.25;3.70;;;19.30;75.10;;;;;;5132396;28;20188;-68
2023/10/09 15:35:49;;;;;;;5.35;3.70;;;19.20;75.00;;;;;;5133405;28;20180;-67
2023/10/09 15:38:15;;;;;;;4.38;3.83;;;19.30;75.10;;;;;;5132525;28;20770;-68
2023/10/09 15:40:43;;;;;;;5.50;3.50;;;19.30;75.20;;;;;;5133261;28;20215;-67
2023/10/09 15:43:12;;;;;;;4.88;3.42;;;19.20;75.00;;;;;;5133009;28;20238;-68
2023/10/09 15:45:41;;;;;;;4.97;3.38;;;19.20;75.10;;;;;;5132409;28;20634;-68
2023/10/09 15:48:07;;;;;;;6.50;3.45;;;19.20;75.10;;;;;;5133045;28;20300;-67
2023/10/09 15:50:34;;;;;;;5.18;3.10;;;19.20;75.10;;;;;;5133183;28;20206;-68
2023/10/09 15:52:59;;;;;;;7.05;3.38;;;19.20;75.10;;;;;;5132384;28;20578;-67
2023/10/09 15:55:25;;;;;;;5.30;3.47;;;19.20;75.10;;;;;;5133045;28;20372;-68
2023/10/09 15:57:54;;;;;;;6.82;3.70;;;19.20;76.00;;;;;;5133220;28;20164;-67
2023/10/09 16:00:21;;;;;;;5.78;3.80;;;19.20;75.10;;;;;;5132291;28;20212;-67
2023/10/09 16:02:52;;;;;;;4.30;3.30;;;19.20;75.10;;;;;;5133319;28;20179;-68
2023/10/09 16:05:18;;;;;;;5.47;3.63;;;19.20;75.10;;;;;;5132981;28;20249;-67